sensor_id;sensor_type;location;lat;lon;timestamp;temperature;humidity
39095;DHT22;24840;47.508;19.376;2023-05-10T00:01:21;9.10;99.90
39095;DHT22;24840;47.508;19.376;2023-05-10T00:03:47;9.00;99.90
39095;DHT22;24840;47.508;19.376;2023-05-10T00:06:13;8.90;99.90
39095;DHT22;24840;47.508;19.376;2023-05-10T00:08:38;8.90;99.90
39095;DHT22;24840;47.508;19.376;2023-05-10T00:11:04;8.90;99.90
39095;DHT22;24840;47.508;19.376;2023-05-10T00:13:30;8.70;99.90
39095;DHT22;24840;47.508;19.376;2023-05-10T00:15:56;8.70;99.90
39095;DHT22;24840;47.508;19.376;2023-05-10T00:18:22;8.80;99.90
39095;DHT22;24840;47.508;19.376;2023-05-10T00:20:47;8.70;99.90
39095;DHT22;24840;47.508;19.376;2023-05-10T00:23:14;8.70;99.90
39095;DHT22;24840;47.508;19.376;2023-05-10T00:25:40;8.80;99.90
39095;DHT22;24840;47.508;19.376;2023-05-10T00:28:05;8.80;99.90
39095;DHT22;24840;47.508;19.376;2023-05-10T00:30:31;8.80;99.90
39095;DHT22;24840;47.508;19.376;2023-05-10T00:32:57;8.90;99.90
39095;DHT22;24840;47.508;19.376;2023-05-10T00:35:23;8.90;99.90
39095;DHT22;24840;47.508;19.376;2023-05-10T00:37:48;8.80;99.90
39095;DHT22;24840;47.508;19.376;2023-05-10T00:40:14;8.70;99.90
39095;DHT22;24840;47.508;19.376;2023-05-10T00:42:40;8.60;99.90
39095;DHT22;24840;47.508;19.376;2023-05-10T00:45:06;8.70;99.90
39095;DHT22;24840;47.508;19.376;2023-05-10T00:47:33;8.70;99.90
39095;DHT22;24840;47.508;19.376;2023-05-10T00:49:59;8.80;99.90
39095;DHT22;24840;47.508;19.376;2023-05-10T00:52:27;8.90;99.90
39095;DHT22;24840;47.508;19.376;2023-05-10T00:54:53;8.90;99.90
39095;DHT22;24840;47.508;19.376;2023-05-10T00:57:20;8.80;99.90
39095;DHT22;24840;47.508;19.376;2023-05-10T00:59:46;8.90;99.90
39095;DHT22;24840;47.508;19.376;2023-05-10T01:02:12;8.90;99.90
39095;DHT22;24840;47.508;19.376;2023-05-10T01:04:38;8.90;99.90
39095;DHT22;24840;47.508;19.376;2023-05-10T01:07:05;9.00;99.90
39095;DHT22;24840;47.508;19.376;2023-05-10T01:09:31;9.00;99.90
39095;DHT22;24840;47.508;19.376;2023-05-10T01:11:57;9.00;99.90
39095;DHT22;24840;47.508;19.376;2023-05-10T01:14:25;9.10;99.90
39095;DHT22;24840;47.508;19.376;2023-05-10T01:16:52;9.10;99.90
39095;DHT22;24840;47.508;19.376;2023-05-10T01:19:26;9.10;99.90
39095;DHT22;24840;47.508;19.376;2023-05-10T01:32:54;9.20;99.90
39095;DHT22;24840;47.508;19.376;2023-05-10T01:35:42;9.20;99.90
39095;DHT22;24840;47.508;19.376;2023-05-10T01:38:27;9.10;99.90
39095;DHT22;24840;47.508;19.376;2023-05-10T01:41:15;9.20;99.90
39095;DHT22;24840;47.508;19.376;2023-05-10T01:46:58;9.00;99.90
39095;DHT22;24840;47.508;19.376;2023-05-10T01:49:30;9.10;99.90
39095;DHT22;24840;47.508;19.376;2023-05-10T01:52:03;9.20;99.90
39095;DHT22;24840;47.508;19.376;2023-05-10T01:54:33;9.10;99.90
39095;DHT22;24840;47.508;19.376;2023-05-10T01:57:05;9.10;99.90
39095;DHT22;24840;47.508;19.376;2023-05-10T01:59:34;9.20;99.90
39095;DHT22;24840;47.508;19.376;2023-05-10T02:02:07;9.20;99.90
39095;DHT22;24840;47.508;19.376;2023-05-10T02:04:35;9.30;99.90
39095;DHT22;24840;47.508;19.376;2023-05-10T02:07:03;9.30;99.90
39095;DHT22;24840;47.508;19.376;2023-05-10T02:09:32;9.30;99.90
39095;DHT22;24840;47.508;19.376;2023-05-10T02:12:01;9.20;99.90
39095;DHT22;24840;47.508;19.376;2023-05-10T02:14:32;9.30;99.90
39095;DHT22;24840;47.508;19.376;2023-05-10T02:17:00;9.30;99.90
39095;DHT22;24840;47.508;19.376;2023-05-10T02:19:28;9.20;99.90
39095;DHT22;24840;47.508;19.376;2023-05-10T02:21:56;9.00;99.90
39095;DHT22;24840;47.508;19.376;2023-05-10T02:24:23;9.10;99.90
39095;DHT22;24840;47.508;19.376;2023-05-10T02:26:51;9.20;99.90
39095;DHT22;24840;47.508;19.376;2023-05-10T02:29:19;9.10;99.90
39095;DHT22;24840;47.508;19.376;2023-05-10T02:31:46;9.10;99.90
39095;DHT22;24840;47.508;19.376;2023-05-10T02:34:12;9.10;99.90
39095;DHT22;24840;47.508;19.376;2023-05-10T02:36:40;9.20;99.90
39095;DHT22;24840;47.508;19.376;2023-05-10T02:39:09;9.10;99.90
39095;DHT22;24840;47.508;19.376;2023-05-10T02:41:40;9.20;99.90
39095;DHT22;24840;47.508;19.376;2023-05-10T02:44:07;9.40;99.90
39095;DHT22;24840;47.508;19.376;2023-05-10T02:46:33;9.30;99.90
39095;DHT22;24840;47.508;19.376;2023-05-10T02:49:00;9.20;99.90
39095;DHT22;24840;47.508;19.376;2023-05-10T02:51:30;9.20;99.90
39095;DHT22;24840;47.508;19.376;2023-05-10T02:53:57;9.20;99.90
39095;DHT22;24840;47.508;19.376;2023-05-10T02:56:32;9.10;99.90
39095;DHT22;24840;47.508;19.376;2023-05-10T02:58:58;9.00;99.90
39095;DHT22;24840;47.508;19.376;2023-05-10T03:01:24;9.10;99.90
39095;DHT22;24840;47.508;19.376;2023-05-10T03:03:50;9.00;99.90
39095;DHT22;24840;47.508;19.376;2023-05-10T03:06:16;9.00;99.90
39095;DHT22;24840;47.508;19.376;2023-05-10T03:08:42;8.90;99.90
39095;DHT22;24840;47.508;19.376;2023-05-10T03:11:32;9.00;99.90
39095;DHT22;24840;47.508;19.376;2023-05-10T03:17:18;8.90;99.90
39095;DHT22;24840;47.508;19.376;2023-05-10T03:19:54;8.90;99.90
39095;DHT22;24840;47.508;19.376;2023-05-10T03:22:41;9.00;99.90
39095;DHT22;24840;47.508;19.376;2023-05-10T03:25:11;9.00;99.90
39095;DHT22;24840;47.508;19.376;2023-05-10T03:27:40;8.90;99.90
39095;DHT22;24840;47.508;19.376;2023-05-10T03:30:11;8.80;99.90
39095;DHT22;24840;47.508;19.376;2023-05-10T03:32:37;8.90;99.90
39095;DHT22;24840;47.508;19.376;2023-05-10T03:35:10;8.80;99.90
39095;DHT22;24840;47.508;19.376;2023-05-10T03:37:37;8.80;99.90
39095;DHT22;24840;47.508;19.376;2023-05-10T03:40:03;8.80;99.90
39095;DHT22;24840;47.508;19.376;2023-05-10T03:42:29;8.80;99.90
39095;DHT22;24840;47.508;19.376;2023-05-10T03:44:55;8.80;99.90
39095;DHT22;24840;47.508;19.376;2023-05-10T03:47:20;8.80;99.90
39095;DHT22;24840;47.508;19.376;2023-05-10T03:49:46;8.80;99.90
39095;DHT22;24840;47.508;19.376;2023-05-10T03:52:12;8.80;99.90
39095;DHT22;24840;47.508;19.376;2023-05-10T03:54:38;8.80;99.90
39095;DHT22;24840;47.508;19.376;2023-05-10T03:57:04;8.80;99.90
39095;DHT22;24840;47.508;19.376;2023-05-10T03:59:29;8.90;99.90
39095;DHT22;24840;47.508;19.376;2023-05-10T04:01:56;9.00;99.90
39095;DHT22;24840;47.508;19.376;2023-05-10T04:04:21;9.00;99.90
39095;DHT22;24840;47.508;19.376;2023-05-10T04:06:48;9.00;99.90
39095;DHT22;24840;47.508;19.376;2023-05-10T04:09:14;9.00;99.90
39095;DHT22;24840;47.508;19.376;2023-05-10T04:11:40;8.80;99.90
39095;DHT22;24840;47.508;19.376;2023-05-10T04:14:06;9.00;99.90
39095;DHT22;24840;47.508;19.376;2023-05-10T04:16:32;9.10;99.90
39095;DHT22;24840;47.508;19.376;2023-05-10T04:18:57;9.20;99.90
39095;DHT22;24840;47.508;19.376;2023-05-10T04:21:23;9.30;99.90
39095;DHT22;24840;47.508;19.376;2023-05-10T04:23:49;9.30;99.90
39095;DHT22;24840;47.508;19.376;2023-05-10T04:26:15;9.40;99.90
39095;DHT22;24840;47.508;19.376;2023-05-10T04:28:40;9.40;99.90
39095;DHT22;24840;47.508;19.376;2023-05-10T04:31:08;9.50;99.90
39095;DHT22;24840;47.508;19.376;2023-05-10T04:33:34;9.50;99.90
39095;DHT22;24840;47.508;19.376;2023-05-10T04:36:01;9.60;99.90
39095;DHT22;24840;47.508;19.376;2023-05-10T04:38:27;9.70;99.90
39095;DHT22;24840;47.508;19.376;2023-05-10T04:40:53;9.60;99.90
39095;DHT22;24840;47.508;19.376;2023-05-10T04:43:19;9.60;99.90
39095;DHT22;24840;47.508;19.376;2023-05-10T04:45:45;9.80;99.90
39095;DHT22;24840;47.508;19.376;2023-05-10T04:48:11;9.80;99.90
39095;DHT22;24840;47.508;19.376;2023-05-10T04:50:38;9.90;99.90
39095;DHT22;24840;47.508;19.376;2023-05-10T04:53:04;10.00;99.90
39095;DHT22;24840;47.508;19.376;2023-05-10T04:55:30;10.10;99.90
39095;DHT22;24840;47.508;19.376;2023-05-10T04:57:55;10.10;99.90
39095;DHT22;24840;47.508;19.376;2023-05-10T05:00:23;10.20;99.90
39095;DHT22;24840;47.508;19.376;2023-05-10T05:02:49;10.20;99.90
39095;DHT22;24840;47.508;19.376;2023-05-10T05:05:14;10.40;99.90
39095;DHT22;24840;47.508;19.376;2023-05-10T05:07:40;10.50;99.90
39095;DHT22;24840;47.508;19.376;2023-05-10T05:10:08;10.60;99.90
39095;DHT22;24840;47.508;19.376;2023-05-10T05:12:34;10.60;99.90
39095;DHT22;24840;47.508;19.376;2023-05-10T05:15:01;10.80;99.90
39095;DHT22;24840;47.508;19.376;2023-05-10T05:17:27;11.00;99.90
39095;DHT22;24840;47.508;19.376;2023-05-10T05:19:52;11.10;99.90
39095;DHT22;24840;47.508;19.376;2023-05-10T05:22:18;11.20;99.90
39095;DHT22;24840;47.508;19.376;2023-05-10T05:24:56;11.30;99.90
39095;DHT22;24840;47.508;19.376;2023-05-10T05:27:22;11.40;99.90
39095;DHT22;24840;47.508;19.376;2023-05-10T05:29:50;11.50;99.90
39095;DHT22;24840;47.508;19.376;2023-05-10T05:32:17;11.70;99.90
39095;DHT22;24840;47.508;19.376;2023-05-10T05:34:45;11.90;99.90
39095;DHT22;24840;47.508;19.376;2023-05-10T05:37:14;11.80;99.90
39095;DHT22;24840;47.508;19.376;2023-05-10T05:39:40;12.00;99.90
39095;DHT22;24840;47.508;19.376;2023-05-10T05:42:06;12.10;99.90
39095;DHT22;24840;47.508;19.376;2023-05-10T05:44:32;12.20;99.90
39095;DHT22;24840;47.508;19.376;2023-05-10T05:46:57;12.20;99.90
39095;DHT22;24840;47.508;19.376;2023-05-10T05:49:23;12.20;99.90
39095;DHT22;24840;47.508;19.376;2023-05-10T05:51:49;12.10;99.90
39095;DHT22;24840;47.508;19.376;2023-05-10T05:54:17;12.30;99.90
39095;DHT22;24840;47.508;19.376;2023-05-10T05:56:43;12.30;99.90
39095;DHT22;24840;47.508;19.376;2023-05-10T05:59:10;12.50;99.90
39095;DHT22;24840;47.508;19.376;2023-05-10T06:01:35;12.60;99.90
39095;DHT22;24840;47.508;19.376;2023-05-10T06:04:01;12.60;99.90
39095;DHT22;24840;47.508;19.376;2023-05-10T06:06:27;12.70;99.90
39095;DHT22;24840;47.508;19.376;2023-05-10T06:08:53;12.80;99.90
39095;DHT22;24840;47.508;19.376;2023-05-10T06:11:19;13.00;99.90
39095;DHT22;24840;47.508;19.376;2023-05-10T06:13:49;13.40;99.90
39095;DHT22;24840;47.508;19.376;2023-05-10T06:16:15;13.40;99.90
39095;DHT22;24840;47.508;19.376;2023-05-10T06:18:40;13.50;99.90
39095;DHT22;24840;47.508;19.376;2023-05-10T06:21:06;13.60;99.90
39095;DHT22;24840;47.508;19.376;2023-05-10T06:23:32;13.80;99.90
39095;DHT22;24840;47.508;19.376;2023-05-10T06:25:59;13.60;99.90
39095;DHT22;24840;47.508;19.376;2023-05-10T06:28:25;13.70;99.90
39095;DHT22;24840;47.508;19.376;2023-05-10T06:30:50;13.80;99.90
39095;DHT22;24840;47.508;19.376;2023-05-10T06:33:16;14.00;99.90
39095;DHT22;24840;47.508;19.376;2023-05-10T06:35:42;14.20;99.90
39095;DHT22;24840;47.508;19.376;2023-05-10T06:38:08;14.30;99.90
39095;DHT22;24840;47.508;19.376;2023-05-10T06:40:33;14.10;99.90
39095;DHT22;24840;47.508;19.376;2023-05-10T06:42:59;14.30;99.90
39095;DHT22;24840;47.508;19.376;2023-05-10T06:45:25;14.40;99.90
39095;DHT22;24840;47.508;19.376;2023-05-10T06:47:51;14.70;99.90
39095;DHT22;24840;47.508;19.376;2023-05-10T06:50:16;14.90;99.90
39095;DHT22;24840;47.508;19.376;2023-05-10T06:52:42;14.90;99.90
39095;DHT22;24840;47.508;19.376;2023-05-10T06:55:09;15.10;99.90
39095;DHT22;24840;47.508;19.376;2023-05-10T06:57:35;15.30;99.90
39095;DHT22;24840;47.508;19.376;2023-05-10T07:00:02;15.60;99.90
39095;DHT22;24840;47.508;19.376;2023-05-10T07:02:30;15.60;99.90
39095;DHT22;24840;47.508;19.376;2023-05-10T07:04:56;15.40;99.40
39095;DHT22;24840;47.508;19.376;2023-05-10T07:07:22;15.30;99.50
39095;DHT22;24840;47.508;19.376;2023-05-10T07:09:48;15.60;99.90
39095;DHT22;24840;47.508;19.376;2023-05-10T07:12:15;15.40;99.20
39095;DHT22;24840;47.508;19.376;2023-05-10T07:14:42;15.30;99.90
39095;DHT22;24840;47.508;19.376;2023-05-10T07:17:07;15.80;99.40
39095;DHT22;24840;47.508;19.376;2023-05-10T07:19:33;15.80;99.60
39095;DHT22;24840;47.508;19.376;2023-05-10T07:21:59;16.20;98.40
39095;DHT22;24840;47.508;19.376;2023-05-10T07:24:24;16.10;97.00
39095;DHT22;24840;47.508;19.376;2023-05-10T07:26:50;16.10;98.60
39095;DHT22;24840;47.508;19.376;2023-05-10T07:29:16;15.80;97.10
39095;DHT22;24840;47.508;19.376;2023-05-10T07:31:42;16.20;98.50
39095;DHT22;24840;47.508;19.376;2023-05-10T07:34:08;16.10;96.60
39095;DHT22;24840;47.508;19.376;2023-05-10T07:36:34;16.00;98.00
39095;DHT22;24840;47.508;19.376;2023-05-10T07:39:00;16.60;98.60
39095;DHT22;24840;47.508;19.376;2023-05-10T07:41:26;16.80;97.10
39095;DHT22;24840;47.508;19.376;2023-05-10T07:43:52;17.10;97.80
39095;DHT22;24840;47.508;19.376;2023-05-10T07:46:18;16.80;95.30
39095;DHT22;24840;47.508;19.376;2023-05-10T07:48:45;16.30;96.60
39095;DHT22;24840;47.508;19.376;2023-05-10T07:51:11;15.70;97.60
39095;DHT22;24840;47.508;19.376;2023-05-10T07:53:38;16.00;97.70
39095;DHT22;24840;47.508;19.376;2023-05-10T07:56:24;16.90;96.90
39095;DHT22;24840;47.508;19.376;2023-05-10T07:58:51;17.20;95.00
39095;DHT22;24840;47.508;19.376;2023-05-10T08:01:18;17.30;96.30
39095;DHT22;24840;47.508;19.376;2023-05-10T08:03:43;17.30;95.90
39095;DHT22;24840;47.508;19.376;2023-05-10T08:06:09;17.10;95.30
39095;DHT22;24840;47.508;19.376;2023-05-10T08:08:35;16.70;96.50
39095;DHT22;24840;47.508;19.376;2023-05-10T08:11:01;17.20;95.60
39095;DHT22;24840;47.508;19.376;2023-05-10T08:13:27;16.80;96.00
39095;DHT22;24840;47.508;19.376;2023-05-10T08:15:52;16.50;96.10
39095;DHT22;24840;47.508;19.376;2023-05-10T08:18:19;16.30;96.00
39095;DHT22;24840;47.508;19.376;2023-05-10T08:20:44;16.40;95.60
39095;DHT22;24840;47.508;19.376;2023-05-10T08:23:12;17.00;96.20
39095;DHT22;24840;47.508;19.376;2023-05-10T08:25:38;17.40;97.30
39095;DHT22;24840;47.508;19.376;2023-05-10T08:28:05;16.80;95.70
39095;DHT22;24840;47.508;19.376;2023-05-10T08:30:31;16.80;96.00
39095;DHT22;24840;47.508;19.376;2023-05-10T08:32:59;17.00;94.90
39095;DHT22;24840;47.508;19.376;2023-05-10T08:35:25;17.60;94.20
39095;DHT22;24840;47.508;19.376;2023-05-10T08:37:51;17.30;92.80
39095;DHT22;24840;47.508;19.376;2023-05-10T08:40:19;17.90;93.30
39095;DHT22;24840;47.508;19.376;2023-05-10T08:42:53;18.30;90.40
39095;DHT22;24840;47.508;19.376;2023-05-10T08:45:23;18.30;91.20
39095;DHT22;24840;47.508;19.376;2023-05-10T08:47:49;18.50;91.00
39095;DHT22;24840;47.508;19.376;2023-05-10T08:50:18;18.70;88.40
39095;DHT22;24840;47.508;19.376;2023-05-10T08:52:46;18.30;92.40
39095;DHT22;24840;47.508;19.376;2023-05-10T08:55:15;17.60;92.00
39095;DHT22;24840;47.508;19.376;2023-05-10T08:57:41;17.70;93.20
39095;DHT22;24840;47.508;19.376;2023-05-10T09:00:07;17.40;92.00
39095;DHT22;24840;47.508;19.376;2023-05-10T09:02:37;17.80;93.00
39095;DHT22;24840;47.508;19.376;2023-05-10T09:05:03;18.30;91.20
39095;DHT22;24840;47.508;19.376;2023-05-10T09:07:30;18.00;91.80
39095;DHT22;24840;47.508;19.376;2023-05-10T09:09:56;18.30;91.60
39095;DHT22;24840;47.508;19.376;2023-05-10T09:12:23;19.90;92.50
39095;DHT22;24840;47.508;19.376;2023-05-10T09:14:50;19.80;89.60
39095;DHT22;24840;47.508;19.376;2023-05-10T09:17:17;20.50;90.30
39095;DHT22;24840;47.508;19.376;2023-05-10T09:19:45;20.60;85.70
39095;DHT22;24840;47.508;19.376;2023-05-10T09:22:10;21.40;88.10
39095;DHT22;24840;47.508;19.376;2023-05-10T09:24:36;21.30;80.30
39095;DHT22;24840;47.508;19.376;2023-05-10T09:27:07;20.50;80.00
39095;DHT22;24840;47.508;19.376;2023-05-10T09:29:42;19.30;82.30
39095;DHT22;24840;47.508;19.376;2023-05-10T09:32:08;19.50;87.90
39095;DHT22;24840;47.508;19.376;2023-05-10T09:34:34;20.10;85.20
39095;DHT22;24840;47.508;19.376;2023-05-10T09:37:02;19.50;84.10
39095;DHT22;24840;47.508;19.376;2023-05-10T09:39:33;20.10;85.20
39095;DHT22;24840;47.508;19.376;2023-05-10T09:42:05;21.50;82.80
39095;DHT22;24840;47.508;19.376;2023-05-10T09:44:32;21.50;80.60
39095;DHT22;24840;47.508;19.376;2023-05-10T09:46:59;21.40;81.80
39095;DHT22;24840;47.508;19.376;2023-05-10T09:49:25;20.90;79.20
39095;DHT22;24840;47.508;19.376;2023-05-10T09:52:20;20.00;82.20
39095;DHT22;24840;47.508;19.376;2023-05-10T09:54:53;20.80;78.10
39095;DHT22;24840;47.508;19.376;2023-05-10T09:57:21;21.00;77.60
39095;DHT22;24840;47.508;19.376;2023-05-10T09:59:48;21.40;77.10
39095;DHT22;24840;47.508;19.376;2023-05-10T10:02:13;21.50;76.50
39095;DHT22;24840;47.508;19.376;2023-05-10T10:04:40;22.60;78.60
39095;DHT22;24840;47.508;19.376;2023-05-10T10:07:06;23.00;75.80
39095;DHT22;24840;47.508;19.376;2023-05-10T10:09:33;23.10;75.30
39095;DHT22;24840;47.508;19.376;2023-05-10T10:12:00;23.10;76.30
39095;DHT22;24840;47.508;19.376;2023-05-10T10:14:26;22.20;73.80
39095;DHT22;24840;47.508;19.376;2023-05-10T10:16:53;22.50;76.80
39095;DHT22;24840;47.508;19.376;2023-05-10T10:19:19;23.00;73.60
39095;DHT22;24840;47.508;19.376;2023-05-10T10:21:47;22.70;72.50
39095;DHT22;24840;47.508;19.376;2023-05-10T10:24:13;21.80;71.90
39095;DHT22;24840;47.508;19.376;2023-05-10T10:26:39;21.80;78.40
39095;DHT22;24840;47.508;19.376;2023-05-10T10:32:08;22.90;71.60
39095;DHT22;24840;47.508;19.376;2023-05-10T10:34:36;23.90;71.10
39095;DHT22;24840;47.508;19.376;2023-05-10T10:37:05;22.80;70.30
39095;DHT22;24840;47.508;19.376;2023-05-10T10:39:31;23.30;71.70
39095;DHT22;24840;47.508;19.376;2023-05-10T10:41:58;23.60;71.10
39095;DHT22;24840;47.508;19.376;2023-05-10T10:44:26;23.70;68.80
39095;DHT22;24840;47.508;19.376;2023-05-10T10:52:25;25.70;61.10
39095;DHT22;24840;47.508;19.376;2023-05-10T10:55:13;24.30;63.00
39095;DHT22;24840;47.508;19.376;2023-05-10T10:57:51;24.20;65.40
39095;DHT22;24840;47.508;19.376;2023-05-10T11:02:52;24.10;62.10
39095;DHT22;24840;47.508;19.376;2023-05-10T11:10:33;21.20;67.90
39095;DHT22;24840;47.508;19.376;2023-05-10T11:13:07;21.50;67.50
39095;DHT22;24840;47.508;19.376;2023-05-10T11:15:35;21.60;68.40
39095;DHT22;24840;47.508;19.376;2023-05-10T11:20:42;22.80;64.30
39095;DHT22;24840;47.508;19.376;2023-05-10T11:23:13;22.50;65.50
39095;DHT22;24840;47.508;19.376;2023-05-10T11:25:42;22.10;65.20
39095;DHT22;24840;47.508;19.376;2023-05-10T11:28:08;22.90;66.20
39095;DHT22;24840;47.508;19.376;2023-05-10T11:30:34;23.50;65.70
39095;DHT22;24840;47.508;19.376;2023-05-10T11:33:00;23.90;60.20
39095;DHT22;24840;47.508;19.376;2023-05-10T11:35:27;23.80;64.70
39095;DHT22;24840;47.508;19.376;2023-05-10T11:37:53;24.80;61.50
39095;DHT22;24840;47.508;19.376;2023-05-10T11:40:21;25.00;62.80
39095;DHT22;24840;47.508;19.376;2023-05-10T11:42:50;23.50;62.10
39095;DHT22;24840;47.508;19.376;2023-05-10T11:45:16;22.80;64.50
39095;DHT22;24840;47.508;19.376;2023-05-10T11:47:41;22.50;65.40
39095;DHT22;24840;47.508;19.376;2023-05-10T11:50:10;21.90;66.90
39095;DHT22;24840;47.508;19.376;2023-05-10T11:52:36;21.20;66.00
39095;DHT22;24840;47.508;19.376;2023-05-10T11:55:06;20.80;67.80
39095;DHT22;24840;47.508;19.376;2023-05-10T11:57:31;20.80;69.00
39095;DHT22;24840;47.508;19.376;2023-05-10T11:59:57;20.60;67.90
39095;DHT22;24840;47.508;19.376;2023-05-10T12:02:23;20.60;68.50
39095;DHT22;24840;47.508;19.376;2023-05-10T12:04:50;20.80;69.60
39095;DHT22;24840;47.508;19.376;2023-05-10T12:07:16;20.60;68.80
39095;DHT22;24840;47.508;19.376;2023-05-10T12:09:43;20.90;68.40
39095;DHT22;24840;47.508;19.376;2023-05-10T12:12:15;21.40;71.50
39095;DHT22;24840;47.508;19.376;2023-05-10T12:14:41;22.60;69.10
39095;DHT22;24840;47.508;19.376;2023-05-10T12:17:11;21.70;65.50
39095;DHT22;24840;47.508;19.376;2023-05-10T12:19:38;21.30;69.60
39095;DHT22;24840;47.508;19.376;2023-05-10T12:22:07;21.70;71.20
39095;DHT22;24840;47.508;19.376;2023-05-10T12:24:36;21.30;68.90
39095;DHT22;24840;47.508;19.376;2023-05-10T12:27:08;21.30;69.10
39095;DHT22;24840;47.508;19.376;2023-05-10T12:29:34;22.00;69.70
39095;DHT22;24840;47.508;19.376;2023-05-10T12:32:00;22.20;68.80
39095;DHT22;24840;47.508;19.376;2023-05-10T12:34:29;23.50;70.20
39095;DHT22;24840;47.508;19.376;2023-05-10T12:36:55;23.50;65.00
39095;DHT22;24840;47.508;19.376;2023-05-10T12:39:21;23.10;65.10
39095;DHT22;24840;47.508;19.376;2023-05-10T12:41:47;23.70;61.80
39095;DHT22;24840;47.508;19.376;2023-05-10T12:44:12;24.20;63.70
39095;DHT22;24840;47.508;19.376;2023-05-10T12:46:38;24.40;61.40
39095;DHT22;24840;47.508;19.376;2023-05-10T12:49:04;23.50;62.20
39095;DHT22;24840;47.508;19.376;2023-05-10T12:51:29;22.90;64.20
39095;DHT22;24840;47.508;19.376;2023-05-10T12:53:56;23.00;63.80
39095;DHT22;24840;47.508;19.376;2023-05-10T12:56:22;23.00;62.10
39095;DHT22;24840;47.508;19.376;2023-05-10T12:58:47;22.40;58.70
39095;DHT22;24840;47.508;19.376;2023-05-10T13:01:14;22.20;62.60
39095;DHT22;24840;47.508;19.376;2023-05-10T13:03:40;22.00;61.80
39095;DHT22;24840;47.508;19.376;2023-05-10T13:06:06;21.90;63.20
39095;DHT22;24840;47.508;19.376;2023-05-10T13:08:32;21.90;64.70
39095;DHT22;24840;47.508;19.376;2023-05-10T13:11:02;21.80;62.30
39095;DHT22;24840;47.508;19.376;2023-05-10T13:13:28;21.70;65.40
39095;DHT22;24840;47.508;19.376;2023-05-10T13:15:54;22.10;64.90
39095;DHT22;24840;47.508;19.376;2023-05-10T13:18:20;22.40;65.90
39095;DHT22;24840;47.508;19.376;2023-05-10T13:20:45;21.60;63.80
39095;DHT22;24840;47.508;19.376;2023-05-10T13:23:11;21.30;64.40
39095;DHT22;24840;47.508;19.376;2023-05-10T13:25:37;21.40;62.90
39095;DHT22;24840;47.508;19.376;2023-05-10T13:28:03;21.30;64.50
39095;DHT22;24840;47.508;19.376;2023-05-10T13:30:28;20.90;64.70
39095;DHT22;24840;47.508;19.376;2023-05-10T13:32:54;21.20;66.70
39095;DHT22;24840;47.508;19.376;2023-05-10T13:35:20;21.30;66.70
39095;DHT22;24840;47.508;19.376;2023-05-10T13:37:46;21.60;65.50
39095;DHT22;24840;47.508;19.376;2023-05-10T13:40:12;22.60;65.60
39095;DHT22;24840;47.508;19.376;2023-05-10T13:42:37;22.60;60.40
39095;DHT22;24840;47.508;19.376;2023-05-10T13:45:04;22.00;64.50
39095;DHT22;24840;47.508;19.376;2023-05-10T13:47:30;21.30;65.10
39095;DHT22;24840;47.508;19.376;2023-05-10T13:49:56;21.10;66.70
39095;DHT22;24840;47.508;19.376;2023-05-10T13:52:22;21.10;66.70
39095;DHT22;24840;47.508;19.376;2023-05-10T13:54:48;20.80;66.10
39095;DHT22;24840;47.508;19.376;2023-05-10T13:57:14;20.90;66.70
39095;DHT22;24840;47.508;19.376;2023-05-10T13:59:42;20.60;66.70
39095;DHT22;24840;47.508;19.376;2023-05-10T14:02:07;20.60;65.50
39095;DHT22;24840;47.508;19.376;2023-05-10T14:04:33;20.30;66.40
39095;DHT22;24840;47.508;19.376;2023-05-10T14:07:01;20.50;67.90
39095;DHT22;24840;47.508;19.376;2023-05-10T14:09:26;20.50;68.40
39095;DHT22;24840;47.508;19.376;2023-05-10T14:11:52;20.20;65.50
39095;DHT22;24840;47.508;19.376;2023-05-10T14:14:18;20.00;66.20
39095;DHT22;24840;47.508;19.376;2023-05-10T14:16:44;20.60;66.60
39095;DHT22;24840;47.508;19.376;2023-05-10T14:19:10;21.50;63.40
39095;DHT22;24840;47.508;19.376;2023-05-10T14:21:37;22.30;63.00
39095;DHT22;24840;47.508;19.376;2023-05-10T14:24:03;22.40;61.70
39095;DHT22;24840;47.508;19.376;2023-05-10T14:26:28;21.40;58.80
39095;DHT22;24840;47.508;19.376;2023-05-10T14:28:54;20.70;58.90
39095;DHT22;24840;47.508;19.376;2023-05-10T14:31:20;20.10;61.20
39095;DHT22;24840;47.508;19.376;2023-05-10T14:33:46;20.00;61.00
39095;DHT22;24840;47.508;19.376;2023-05-10T14:36:12;20.00;61.70
39095;DHT22;24840;47.508;19.376;2023-05-10T14:38:39;19.60;60.30
39095;DHT22;24840;47.508;19.376;2023-05-10T14:41:05;19.50;62.50
39095;DHT22;24840;47.508;19.376;2023-05-10T14:43:31;19.40;61.20
39095;DHT22;24840;47.508;19.376;2023-05-10T14:45:56;19.40;61.70
39095;DHT22;24840;47.508;19.376;2023-05-10T14:48:22;19.40;62.10
39095;DHT22;24840;47.508;19.376;2023-05-10T14:50:48;19.50;64.30
39095;DHT22;24840;47.508;19.376;2023-05-10T14:53:15;19.40;64.10
39095;DHT22;24840;47.508;19.376;2023-05-10T14:55:41;19.40;65.40
39095;DHT22;24840;47.508;19.376;2023-05-10T14:58:06;19.40;66.40
39095;DHT22;24840;47.508;19.376;2023-05-10T15:00:32;19.40;66.80
39095;DHT22;24840;47.508;19.376;2023-05-10T15:02:58;20.00;66.90
39095;DHT22;24840;47.508;19.376;2023-05-10T15:05:24;20.00;66.00
39095;DHT22;24840;47.508;19.376;2023-05-10T15:07:49;20.60;64.70
39095;DHT22;24840;47.508;19.376;2023-05-10T15:10:17;20.50;66.40
39095;DHT22;24840;47.508;19.376;2023-05-10T15:12:43;20.80;65.50
39095;DHT22;24840;47.508;19.376;2023-05-10T15:15:08;21.20;64.40
39095;DHT22;24840;47.508;19.376;2023-05-10T15:17:34;21.30;64.90
39095;DHT22;24840;47.508;19.376;2023-05-10T15:20:01;21.20;65.50
39095;DHT22;24840;47.508;19.376;2023-05-10T15:22:29;20.70;64.70
39095;DHT22;24840;47.508;19.376;2023-05-10T15:24:57;20.50;66.20
39095;DHT22;24840;47.508;19.376;2023-05-10T15:27:23;20.40;65.60
39095;DHT22;24840;47.508;19.376;2023-05-10T15:29:49;20.10;65.90
39095;DHT22;24840;47.508;19.376;2023-05-10T15:32:15;19.80;66.30
39095;DHT22;24840;47.508;19.376;2023-05-10T15:34:40;19.60;66.40
39095;DHT22;24840;47.508;19.376;2023-05-10T15:37:06;19.90;65.30
39095;DHT22;24840;47.508;19.376;2023-05-10T15:39:32;19.90;66.40
39095;DHT22;24840;47.508;19.376;2023-05-10T15:41:57;20.20;65.90
39095;DHT22;24840;47.508;19.376;2023-05-10T15:44:23;20.20;64.80
39095;DHT22;24840;47.508;19.376;2023-05-10T15:46:50;20.20;64.50
39095;DHT22;24840;47.508;19.376;2023-05-10T15:49:16;19.80;63.90
39095;DHT22;24840;47.508;19.376;2023-05-10T15:51:43;19.60;66.90
39095;DHT22;24840;47.508;19.376;2023-05-10T15:54:11;19.50;66.40
39095;DHT22;24840;47.508;19.376;2023-05-10T15:56:37;19.20;66.60